Los Trujillos, New Mexico
Current Conditions -  °F | °C
As of 8:15 AM on Wednesday 26 Nov 2014 (Local Time) from KE80 Reporting Station
Clear Clear  
Wind Chill: 39°   Ceiling: Unl
Heat Index: 39°   Visibility: 10mi
Dew Point:   Wind: 3mph
Humidity: 29%   Direction: 10°N
Pressure: 30.38"   Gusts: NA
Location:  34.5756°N, 106.588°W
Report Text: KE80 261515Z AUTO 01003KT 10SM CLR 04/M13 A3038 RMK AO2 T00391130
Loading
Personal Weather Stations






























Interactive Weather Map New forecast layout! Learn more

10-Day Weather Forecast

Advertisements
Track Severe Weather on mobile